Time;durP1;ratioP1;P1;durP2;ratioP2;P2;SDS_P1;SDS_P2;PMS_P1;PMS_P2;Temp;Humidity;BMP_temperature;BMP_pressure;BME280_temperature;BME280_humidity;BME280_pressure;Samples;Min_cycle;Max_cycle;Signal;HPM_P1;HPM_P2
2023/01/12 00:01:32;;;;;;;13.27;2.30;;;8.20;99.90;;;;;;5033591;28;20465;-80
2023/01/12 00:03:59;;;;;;;6.30;1.80;;;8.20;99.90;;;;;;5037194;28;20492;-79
2023/01/12 00:06:26;;;;;;;9.10;1.70;;;8.20;99.90;;;;;;5036413;28;20952;-80
2023/01/12 00:08:53;;;;;;;12.87;2.47;;;8.20;99.90;;;;;;5039577;28;20466;-80
2023/01/12 00:11:20;;;;;;;7.60;2.10;;;8.20;99.90;;;;;;5042278;28;20506;-81
2023/01/12 00:13:47;;;;;;;6.40;2.37;;;8.20;99.90;;;;;;5037471;28;20451;-81
2023/01/12 00:16:36;;;;;;;7.93;1.87;;;8.20;99.90;;;;;;5043082;28;20465;-82
2023/01/12 00:19:09;;;;;;;6.33;2.07;;;8.20;99.90;;;;;;5039996;28;20494;-84
2023/01/12 00:21:48;;;;;;;10.10;2.50;;;8.20;99.90;;;;;;5038884;28;20444;-81
2023/01/12 00:24:16;;;;;;;7.50;1.90;;;8.20;99.90;;;;;;5052169;28;20468;-79
2023/01/12 00:26:45;;;;;;;7.90;2.30;;;8.20;99.90;;;;;;5051829;28;20456;-80
2023/01/12 00:29:12;;;;;;;7.50;2.20;;;8.20;99.90;;;;;;5040583;28;20564;-79
2023/01/12 00:31:39;;;;;;;9.77;3.17;;;8.30;99.90;;;;;;5041055;28;20463;-79
2023/01/12 00:34:07;;;;;;;11.90;2.30;;;8.30;99.90;;;;;;5039846;28;20973;-80
2023/01/12 00:36:34;;;;;;;11.70;2.37;;;8.30;99.90;;;;;;5039785;28;20466;-79
2023/01/12 00:39:01;;;;;;;8.20;2.40;;;8.30;99.90;;;;;;5041485;28;21030;-81
2023/01/12 00:47:06;;;;;;;7.63;1.73;;;8.40;99.90;;;;;;4998672;28;20424;-79
2023/01/12 00:49:34;;;;;;;12.43;4.53;;;8.40;99.90;;;;;;5040392;28;20473;-79
2023/01/12 00:52:01;;;;;;;5.87;1.97;;;8.30;99.90;;;;;;5042050;28;20906;-81
2023/01/12 00:54:28;;;;;;;8.10;2.00;;;8.40;99.90;;;;;;5041129;28;21118;-79
2023/01/12 00:56:54;;;;;;;4.80;1.70;;;8.40;99.90;;;;;;5042114;28;20461;-80
2023/01/12 00:59:24;;;;;;;5.50;2.03;;;8.40;99.90;;;;;;5042354;28;20487;-78
2023/01/12 01:01:51;;;;;;;7.83;2.50;;;8.40;99.90;;;;;;5042684;28;20554;-79
2023/01/12 01:04:18;;;;;;;10.53;2.67;;;8.40;99.90;;;;;;5041913;28;20481;-78
2023/01/12 01:06:46;;;;;;;4.77;2.20;;;8.40;99.90;;;;;;5044423;28;20456;-79
2023/01/12 01:09:13;;;;;;;10.30;2.73;;;8.40;99.90;;;;;;5044573;28;20978;-78
2023/01/12 01:11:41;;;;;;;5.73;2.03;;;8.40;99.90;;;;;;5043365;28;20448;-79
2023/01/12 01:14:08;;;;;;;4.63;1.67;;;8.40;99.90;;;;;;5043828;28;20444;-79
2023/01/12 01:16:35;;;;;;;4.80;1.87;;;8.40;99.90;;;;;;5042156;28;20468;-79
2023/01/12 01:19:04;;;;;;;11.20;2.50;;;8.40;99.90;;;;;;5039395;28;20474;-79
2023/01/12 01:21:31;;;;;;;13.33;2.10;;;8.40;99.90;;;;;;5039625;28;20967;-80
2023/01/12 01:24:00;;;;;;;8.40;2.63;;;8.50;99.90;;;;;;5039968;28;20489;-79
2023/01/12 01:26:29;;;;;;;8.83;2.20;;;8.50;99.90;;;;;;5038989;28;20449;-81
2023/01/12 01:28:56;;;;;;;7.30;2.17;;;8.50;99.90;;;;;;5039086;28;20473;-79
2023/01/12 01:31:25;;;;;;;4.10;1.60;;;8.50;99.90;;;;;;5037877;28;20487;-81
2023/01/12 01:33:52;;;;;;;7.20;2.63;;;8.50;99.90;;;;;;5037691;28;20552;-80
2023/01/12 01:36:19;;;;;;;8.20;2.17;;;8.50;99.90;;;;;;5037820;28;20463;-80
2023/01/12 01:38:48;;;;;;;5.67;1.83;;;8.50;99.90;;;;;;5036935;28;20858;-80
2023/01/12 01:41:20;;;;;;;7.40;1.97;;;8.50;99.90;;;;;;5035876;28;21035;-79
2023/01/12 01:43:53;;;;;;;8.23;2.13;;;8.50;99.90;;;;;;5037347;28;20504;-80
2023/01/12 01:46:29;;;;;;;8.70;2.10;;;8.50;99.90;;;;;;5036378;28;20457;-80
2023/01/12 01:48:57;;;;;;;11.83;2.73;;;8.50;99.90;;;;;;5036673;28;20474;-78
2023/01/12 01:51:24;;;;;;;6.07;1.80;;;8.60;99.90;;;;;;5037177;28;20457;-77
2023/01/12 01:53:51;;;;;;;16.30;2.83;;;8.60;99.90;;;;;;5034475;28;20455;-78
2023/01/12 01:56:26;;;;;;;11.47;2.20;;;8.60;99.90;;;;;;5033957;28;20462;-78
2023/01/12 01:58:56;;;;;;;6.80;2.43;;;8.60;99.90;;;;;;5034246;28;20484;-77
2023/01/12 02:01:24;;;;;;;14.07;2.83;;;8.60;99.90;;;;;;5033316;28;20837;-77
2023/01/12 02:03:53;;;;;;;4.67;1.83;;;8.70;99.90;;;;;;5034509;28;20587;-78
2023/01/12 02:06:22;;;;;;;12.57;2.43;;;8.70;99.90;;;;;;5033927;28;20447;-78
2023/01/12 02:08:54;;;;;;;8.40;2.20;;;8.70;99.90;;;;;;5032959;28;20477;-76
2023/01/12 02:17:04;;;;;;;8.50;2.10;;;8.80;99.90;;;;;;5044548;28;20445;-78
2023/01/12 02:19:54;;;;;;;9.57;2.30;;;8.80;99.90;;;;;;5046881;28;20542;-78
2023/01/12 02:22:49;;;;;;;14.60;2.60;;;8.80;99.90;;;;;;5037983;28;20897;-77
2023/01/12 02:25:43;;;;;;;10.73;3.10;;;8.80;99.90;;;;;;5032791;28;20493;-78
2023/01/12 02:28:32;;;;;;;6.20;2.10;;;8.80;99.90;;;;;;5029333;28;20983;-78
2023/01/12 02:31:21;;;;;;;8.70;2.07;;;8.80;99.90;;;;;;5031738;28;20452;-77
2023/01/12 02:34:00;;;;;;;5.90;1.90;;;8.80;99.90;;;;;;5029224;28;20882;-81
2023/01/12 02:36:36;;;;;;;13.53;2.27;;;8.80;99.90;;;;;;5033303;28;20447;-79
2023/01/12 02:39:11;;;;;;;8.83;2.80;;;8.80;99.90;;;;;;5032725;28;20562;-78
2023/01/12 02:44:33;;;;;;;7.60;2.33;;;8.80;99.90;;;;;;5030883;28;21003;-78
2023/01/12 02:47:05;;;;;;;8.33;2.37;;;8.80;99.90;;;;;;5033362;28;20461;-78
2023/01/12 02:49:37;;;;;;;6.37;1.93;;;8.70;99.90;;;;;;5031287;28;20483;-79
2023/01/12 02:52:10;;;;;;;7.27;1.90;;;8.70;99.90;;;;;;5033253;28;20904;-77
2023/01/12 02:54:39;;;;;;;11.00;2.40;;;8.70;99.90;;;;;;5034284;28;20441;-79
2023/01/12 02:57:08;;;;;;;7.30;2.53;;;8.70;99.90;;;;;;5034058;28;20457;-78
2023/01/12 02:59:39;;;;;;;10.83;2.33;;;8.60;99.90;;;;;;5032584;28;20480;-76
2023/01/12 03:02:10;;;;;;;14.27;2.60;;;8.70;99.90;;;;;;5031207;28;20465;-78
2023/01/12 03:04:39;;;;;;;11.27;3.10;;;8.60;99.90;;;;;;5032463;28;20477;-78
2023/01/12 03:07:36;;;;;;;8.77;2.60;;;8.60;99.90;;;;;;5033716;28;20540;-78
2023/01/12 03:10:15;;;;;;;9.17;2.00;;;8.60;99.90;;;;;;5020244;28;21009;-79
2023/01/12 03:12:43;;;;;;;5.80;2.23;;;8.60;99.90;;;;;;5033340;28;20873;-78
2023/01/12 03:15:14;;;;;;;9.13;2.93;;;8.60;99.90;;;;;;5033419;28;20444;-79
2023/01/12 03:17:45;;;;;;;5.80;2.07;;;8.60;99.90;;;;;;5033227;28;20457;-79
2023/01/12 03:20:18;;;;;;;5.20;1.90;;;8.60;99.90;;;;;;5032452;28;20960;-77
2023/01/12 03:22:47;;;;;;;14.30;2.70;;;8.60;99.90;;;;;;5032917;28;20449;-80
2023/01/12 03:25:17;;;;;;;18.00;3.13;;;8.50;99.90;;;;;;5033548;28;20490;-79
2023/01/12 03:27:48;;;;;;;12.80;2.80;;;8.50;99.90;;;;;;5032761;28;20541;-80
2023/01/12 03:30:19;;;;;;;14.07;3.20;;;8.50;99.90;;;;;;5032437;28;20982;-79
2023/01/12 03:32:48;;;;;;;14.20;2.70;;;8.50;99.90;;;;;;5033473;28;20434;-78
2023/01/12 03:35:16;;;;;;;10.60;3.07;;;8.60;99.90;;;;;;5031423;28;20986;-79
2023/01/12 03:37:49;;;;;;;9.30;2.50;;;8.60;99.90;;;;;;5029304;28;20536;-78
2023/01/12 03:40:21;;;;;;;17.30;2.80;;;8.60;99.90;;;;;;5031948;28;20453;-79
2023/01/12 03:42:53;;;;;;;11.77;2.67;;;8.50;99.90;;;;;;5032544;28;20458;-80
2023/01/12 03:45:26;;;;;;;6.97;3.10;;;8.60;99.90;;;;;;5031272;28;20499;-77
2023/01/12 03:47:59;;;;;;;14.00;2.90;;;8.50;99.90;;;;;;5034051;28;20469;-80
2023/01/12 03:50:34;;;;;;;10.13;2.70;;;8.60;99.90;;;;;;5032262;28;20458;-82
2023/01/12 03:53:04;;;;;;;7.33;2.30;;;8.60;99.90;;;;;;5033069;28;20478;-79
2023/01/12 03:55:32;;;;;;;12.80;2.33;;;8.60;99.90;;;;;;5034089;28;20454;-78
2023/01/12 03:58:00;;;;;;;13.60;2.83;;;8.60;99.90;;;;;;5032529;28;20476;-78
2023/01/12 04:00:29;;;;;;;12.63;2.60;;;8.60;99.90;;;;;;5030980;28;20484;-79
2023/01/12 04:03:07;;;;;;;18.60;3.47;;;8.50;99.90;;;;;;5054762;22;20508;-81
2023/01/12 04:05:34;;;;;;;13.20;2.23;;;8.60;99.90;;;;;;5030916;28;20581;-82
2023/01/12 04:08:01;;;;;;;6.17;2.10;;;8.60;99.90;;;;;;5036679;28;20461;-84
2023/01/12 04:10:28;;;;;;;11.80;3.13;;;8.60;99.90;;;;;;5034899;28;20460;-82
2023/01/12 04:12:55;;;;;;;8.90;1.97;;;8.60;99.90;;;;;;5026897;28;20474;-81
2023/01/12 04:15:21;;;;;;;6.27;1.90;;;8.60;99.90;;;;;;5012041;28;20535;-81
2023/01/12 04:17:48;;;;;;;12.90;2.30;;;8.70;99.90;;;;;;5008481;28;20468;-81
2023/01/12 04:20:17;;;;;;;7.73;1.93;;;8.70;99.90;;;;;;5007205;28;20928;-81
2023/01/12 04:22:43;;;;;;;17.03;2.20;;;8.70;99.90;;;;;;5014362;28;20484;-81
2023/01/12 04:25:10;;;;;;;8.33;2.03;;;8.70;99.90;;;;;;5010879;28;20482;-80
2023/01/12 04:27:40;;;;;;;5.43;1.83;;;8.70;99.90;;;;;;5012275;28;20470;-81
2023/01/12 04:30:08;;;;;;;10.50;2.60;;;8.70;99.90;;;;;;5007503;28;20468;-81
2023/01/12 04:32:35;;;;;;;10.60;2.20;;;8.70;99.90;;;;;;5006991;28;20486;-81
2023/01/12 04:35:02;;;;;;;4.73;1.57;;;8.70;99.90;;;;;;5010988;28;20464;-82
2023/01/12 04:37:31;;;;;;;12.17;2.67;;;8.70;99.90;;;;;;5011353;28;20476;-80
2023/01/12 04:39:58;;;;;;;8.00;1.90;;;8.70;99.90;;;;;;5012531;28;20549;-80
2023/01/12 04:45:10;;;;;;;22.17;3.00;;;8.70;99.90;;;;;;5014315;28;20500;-80
2023/01/12 04:47:37;;;;;;;7.47;2.63;;;8.70;99.90;;;;;;5015282;28;21153;-81
2023/01/12 04:50:05;;;;;;;5.83;1.70;;;8.70;99.90;;;;;;5010080;28;20458;-82
2023/01/12 04:52:33;;;;;;;6.37;1.77;;;8.70;99.90;;;;;;5018153;28;20552;-81
2023/01/12 04:55:00;;;;;;;10.10;1.90;;;8.70;99.90;;;;;;5019616;28;20825;-82
2023/01/12 04:57:27;;;;;;;11.00;2.13;;;8.70;99.90;;;;;;5018995;28;20474;-82
2023/01/12 04:59:53;;;;;;;4.17;1.33;;;8.70;99.90;;;;;;5019397;28;20549;-81
2023/01/12 05:02:20;;;;;;;7.27;2.00;;;8.70;99.90;;;;;;5019360;28;20979;-81
2023/01/12 05:04:47;;;;;;;10.10;2.10;;;8.70;99.90;;;;;;5019809;28;20484;-82
2023/01/12 05:07:14;;;;;;;4.97;2.00;;;8.70;99.90;;;;;;5019565;28;20463;-82
2023/01/12 05:12:27;;;;;;;5.47;2.03;;;8.70;99.90;;;;;;4997765;28;20455;-81
2023/01/12 05:14:54;;;;;;;6.47;1.90;;;8.70;99.90;;;;;;5012713;28;20553;-81
2023/01/12 05:17:21;;;;;;;5.00;1.50;;;8.70;99.90;;;;;;5015379;28;20457;-81
2023/01/12 05:19:48;;;;;;;4.37;1.50;;;8.70;99.90;;;;;;5014794;28;20460;-81
2023/01/12 05:22:15;;;;;;;6.13;2.40;;;8.70;99.90;;;;;;5015466;28;20469;-80
2023/01/12 05:24:43;;;;;;;5.30;2.07;;;8.70;99.90;;;;;;5016438;28;20544;-81
2023/01/12 05:27:10;;;;;;;5.83;1.70;;;8.70;99.90;;;;;;5015120;28;20459;-80
2023/01/12 05:29:37;;;;;;;4.23;1.50;;;8.60;99.90;;;;;;5014743;28;20537;-81
2023/01/12 05:32:04;;;;;;;2.67;1.20;;;8.60;99.90;;;;;;5016072;28;20889;-80
2023/01/12 05:34:31;;;;;;;14.13;2.30;;;8.60;99.90;;;;;;5015147;28;20497;-82
2023/01/12 05:36:58;;;;;;;2.77;1.20;;;8.60;99.90;;;;;;5020271;28;20450;-80
2023/01/12 05:39:24;;;;;;;6.37;1.17;;;8.60;99.90;;;;;;5017601;28;20486;-82
2023/01/12 05:44:37;;;;;;;5.20;1.90;;;8.60;99.90;;;;;;5017985;28;20446;-79
2023/01/12 05:47:04;;;;;;;3.73;1.00;;;8.60;99.90;;;;;;5016424;28;20889;-81
2023/01/12 05:49:30;;;;;;;5.53;1.60;;;8.50;99.90;;;;;;5019003;28;20544;-80
2023/01/12 05:51:57;;;;;;;2.80;1.10;;;8.50;99.90;;;;;;5017009;28;20458;-80
2023/01/12 05:54:25;;;;;;;4.90;1.43;;;8.40;99.90;;;;;;5017173;28;20490;-80
2023/01/12 05:56:54;;;;;;;4.67;1.47;;;8.40;99.90;;;;;;5016580;28;20455;-81
2023/01/12 05:59:21;;;;;;;5.63;1.00;;;8.40;99.90;;;;;;5016079;28;20951;-81
2023/01/12 06:01:48;;;;;;;3.97;1.17;;;8.40;99.90;;;;;;5016919;28;20462;-82
2023/01/12 06:04:14;;;;;;;4.73;1.10;;;8.40;99.90;;;;;;5016365;28;20577;-81
2023/01/12 06:06:41;;;;;;;2.70;1.40;;;8.40;99.90;;;;;;5018216;28;20489;-81
2023/01/12 06:09:08;;;;;;;4.30;1.57;;;8.40;99.90;;;;;;5017930;28;20519;-79
2023/01/12 06:14:21;;;;;;;4.40;1.63;;;8.40;99.90;;;;;;5020691;28;20532;-80
2023/01/12 06:16:48;;;;;;;4.67;1.00;;;8.40;99.90;;;;;;5020801;28;21330;-80
2023/01/12 06:19:14;;;;;;;5.90;1.33;;;8.40;99.90;;;;;;5018159;28;20544;-81
2023/01/12 06:21:41;;;;;;;2.17;0.80;;;8.40;99.90;;;;;;5017835;28;20453;-81
2023/01/12 06:24:09;;;;;;;3.23;0.93;;;8.40;99.90;;;;;;5004958;28;20485;-79
2023/01/12 06:26:35;;;;;;;7.33;1.27;;;8.40;99.90;;;;;;5013462;28;20482;-81
2023/01/12 06:29:05;;;;;;;13.33;1.50;;;8.40;99.90;;;;;;5016840;28;21011;-80
2023/01/12 06:31:34;;;;;;;8.30;1.60;;;8.40;99.90;;;;;;5014171;28;20489;-80
2023/01/12 06:34:01;;;;;;;3.30;1.53;;;8.50;99.90;;;;;;5016859;28;20474;-80
2023/01/12 06:36:28;;;;;;;5.10;1.93;;;8.40;99.90;;;;;;5015156;28;20508;-81
2023/01/12 06:38:54;;;;;;;6.03;1.37;;;8.40;99.90;;;;;;5014917;28;20988;-79
2023/01/12 06:44:05;;;;;;;3.50;1.37;;;8.50;99.90;;;;;;5013268;28;20472;-80
2023/01/12 06:46:33;;;;;;;3.30;1.17;;;8.50;99.90;;;;;;5014456;28;20513;-79
2023/01/12 06:49:00;;;;;;;3.63;1.70;;;8.40;99.90;;;;;;5013270;28;20537;-80
2023/01/12 06:51:27;;;;;;;6.90;1.60;;;8.50;99.90;;;;;;5015718;28;20465;-80
2023/01/12 06:53:54;;;;;;;4.40;1.50;;;8.50;99.90;;;;;;5015109;28;21063;-80
2023/01/12 06:56:21;;;;;;;4.40;1.00;;;8.50;99.90;;;;;;5016022;28;20457;-79
2023/01/12 06:58:48;;;;;;;1.73;1.13;;;8.50;99.90;;;;;;5016874;28;20529;-82
2023/01/12 07:01:16;;;;;;;5.37;2.20;;;8.50;99.90;;;;;;5013915;28;20556;-81
2023/01/12 07:03:44;;;;;;;6.27;1.80;;;8.50;99.90;;;;;;5016446;28;20481;-80
2023/01/12 07:06:13;;;;;;;3.50;1.20;;;8.50;99.90;;;;;;5016164;28;21003;-80
2023/01/12 07:08:40;;;;;;;4.77;1.47;;;8.50;99.90;;;;;;5015455;28;20462;-81
2023/01/12 07:11:07;;;;;;;4.60;1.97;;;8.50;99.90;;;;;;5014965;28;21018;-81
2023/01/12 07:13:35;;;;;;;3.10;1.27;;;8.50;99.90;;;;;;5015139;28;20481;-81
2023/01/12 07:16:02;;;;;;;3.77;1.70;;;8.60;99.90;;;;;;5013648;28;20548;-81
2023/01/12 07:18:30;;;;;;;2.97;1.17;;;8.60;99.90;;;;;;5017749;28;20489;-81
2023/01/12 07:20:58;;;;;;;5.57;1.90;;;8.60;99.90;;;;;;5023309;28;20831;-81
2023/01/12 07:23:25;;;;;;;4.43;1.90;;;8.50;99.90;;;;;;5026212;28;20486;-80
2023/01/12 07:25:52;;;;;;;2.90;1.10;;;8.50;99.90;;;;;;5018517;28;20576;-80
2023/01/12 07:28:20;;;;;;;3.77;1.70;;;8.50;99.90;;;;;;5009708;28;20453;-81
2023/01/12 07:30:47;;;;;;;5.03;1.80;;;8.60;99.90;;;;;;5021812;28;20459;-81
2023/01/12 07:33:15;;;;;;;2.30;1.40;;;8.60;99.90;;;;;;5021213;28;20999;-82
2023/01/12 07:35:43;;;;;;;5.63;2.07;;;8.60;99.90;;;;;;5009429;28;20523;-82
2023/01/12 07:38:11;;;;;;;3.20;1.47;;;8.60;99.90;;;;;;5021684;28;20445;-81
2023/01/12 07:40:38;;;;;;;6.33;1.40;;;8.60;99.90;;;;;;5020088;28;20480;-82
2023/01/12 07:43:07;;;;;;;3.30;1.97;;;8.70;99.90;;;;;;5019962;28;20466;-82
2023/01/12 07:45:34;;;;;;;3.07;1.53;;;8.70;99.90;;;;;;5014163;28;20492;-80
2023/01/12 07:48:01;;;;;;;8.27;2.00;;;8.70;99.90;;;;;;5020582;28;20492;-78
2023/01/12 07:50:32;;;;;;;4.90;1.53;;;8.70;99.90;;;;;;5005728;28;20555;-79
2023/01/12 07:53:01;;;;;;;8.43;1.80;;;8.80;99.90;;;;;;4999116;28;20548;-80
2023/01/12 07:55:30;;;;;;;5.63;1.63;;;8.80;99.90;;;;;;4998282;28;20468;-80
2023/01/12 07:57:58;;;;;;;5.33;2.17;;;8.80;99.90;;;;;;5016435;28;20489;-77
2023/01/12 08:00:26;;;;;;;4.53;1.53;;;8.80;99.90;;;;;;5014295;28;20453;-79
2023/01/12 08:02:54;;;;;;;5.40;1.27;;;8.80;99.90;;;;;;5013253;28;20492;-80
2023/01/12 08:05:22;;;;;;;4.77;1.57;;;8.90;99.90;;;;;;4994842;28;20596;-79
2023/01/12 08:07:49;;;;;;;5.60;1.30;;;8.90;99.90;;;;;;4994624;28;20615;-80
2023/01/12 08:10:17;;;;;;;8.60;2.17;;;8.90;99.90;;;;;;4992783;28;20543;-79
2023/01/12 08:12:45;;;;;;;4.47;1.83;;;8.90;99.90;;;;;;4999405;28;20528;-79
2023/01/12 08:15:12;;;;;;;6.80;1.30;;;9.00;99.90;;;;;;5026890;28;20449;-79
2023/01/12 08:17:44;;;;;;;8.17;1.57;;;9.00;99.90;;;;;;5010738;28;20473;-79
2023/01/12 08:20:17;;;;;;;3.93;1.77;;;9.00;99.90;;;;;;5013029;28;20478;-78
2023/01/12 08:22:47;;;;;;;4.63;1.30;;;9.10;99.90;;;;;;5003430;28;21039;-78
2023/01/12 08:25:17;;;;;;;4.90;1.20;;;9.10;99.90;;;;;;5014559;28;20454;-79
2023/01/12 08:27:49;;;;;;;2.90;1.20;;;9.10;99.90;;;;;;5018174;28;20493;-78
2023/01/12 08:30:18;;;;;;;3.83;1.60;;;9.10;99.90;;;;;;5017069;28;20463;-79
2023/01/12 08:32:45;;;;;;;3.50;0.93;;;9.20;99.90;;;;;;5020001;28;20490;-78
2023/01/12 08:35:14;;;;;;;3.00;1.23;;;9.20;99.90;;;;;;5021178;28;20552;-78
2023/01/12 08:37:41;;;;;;;6.40;1.43;;;9.20;99.90;;;;;;5010305;28;20449;-80
2023/01/12 08:40:10;;;;;;;3.53;2.70;;;9.20;99.90;;;;;;5032901;28;20514;-79
2023/01/12 08:42:37;;;;;;;3.40;1.10;;;9.20;99.90;;;;;;5024798;28;20478;-80
2023/01/12 08:45:06;;;;;;;3.50;1.20;;;9.20;99.90;;;;;;5022862;28;20551;-78
2023/01/12 08:47:34;;;;;;;4.10;1.30;;;9.30;99.90;;;;;;5018063;28;20481;-79
2023/01/12 08:50:02;;;;;;;4.70;1.50;;;9.30;99.90;;;;;;5009295;28;20533;-80
2023/01/12 08:52:31;;;;;;;5.67;1.30;;;9.30;99.90;;;;;;5019905;28;20469;-78
2023/01/12 08:54:58;;;;;;;2.70;0.90;;;9.30;99.90;;;;;;5021371;28;20491;-79
2023/01/12 08:57:25;;;;;;;5.70;1.13;;;9.40;99.90;;;;;;5016094;28;20455;-79
2023/01/12 08:59:52;;;;;;;2.37;1.10;;;9.30;99.90;;;;;;5005383;28;20460;-79
2023/01/12 09:02:20;;;;;;;4.33;1.43;;;9.40;99.90;;;;;;5007919;28;20476;-79
2023/01/12 09:04:47;;;;;;;6.03;1.23;;;9.40;99.90;;;;;;5011626;28;20470;-78
2023/01/12 09:07:15;;;;;;;2.43;1.30;;;9.40;99.90;;;;;;5025879;28;20486;-81
2023/01/12 09:09:42;;;;;;;4.63;1.10;;;9.40;99.90;;;;;;5012166;28;20864;-79
2023/01/12 09:12:09;;;;;;;5.57;1.10;;;9.50;99.90;;;;;;5019131;28;20553;-78
2023/01/12 09:14:37;;;;;;;3.30;1.20;;;9.50;99.90;;;;;;5008777;28;20540;-78
2023/01/12 09:17:05;;;;;;;3.50;1.00;;;9.50;99.90;;;;;;5003386;28;20456;-78
2023/01/12 09:19:33;;;;;;;3.40;1.20;;;9.50;99.90;;;;;;4997712;28;20456;-79
2023/01/12 09:22:00;;;;;;;2.00;0.80;;;9.50;99.90;;;;;;4998087;28;20451;-78
2023/01/12 09:24:27;;;;;;;4.97;1.40;;;9.60;99.90;;;;;;4997982;28;20461;-79
2023/01/12 09:26:54;;;;;;;3.27;1.80;;;9.60;99.90;;;;;;5004778;28;20478;-79
2023/01/12 09:29:21;;;;;;;3.80;0.90;;;9.60;99.90;;;;;;5018229;28;20455;-79
2023/01/12 09:31:48;;;;;;;3.13;1.00;;;9.70;99.90;;;;;;5018508;28;20477;-78
2023/01/12 09:34:16;;;;;;;3.20;0.90;;;9.70;99.90;;;;;;5018419;28;20559;-79
2023/01/12 09:36:44;;;;;;;5.00;1.10;;;9.70;99.90;;;;;;5018244;28;20544;-79
2023/01/12 09:39:15;;;;;;;4.23;1.10;;;9.70;99.90;;;;;;5018225;28;20453;-80
2023/01/12 09:47:29;;;;;;;2.30;0.97;;;9.80;99.90;;;;;;4999057;28;20480;-80
2023/01/12 09:50:01;;;;;;;3.97;0.93;;;9.90;99.90;;;;;;4997541;28;20525;-80
2023/01/12 09:52:33;;;;;;;7.70;1.30;;;9.90;99.90;;;;;;4999408;28;20562;-79
2023/01/12 09:55:00;;;;;;;3.63;1.00;;;10.00;99.90;;;;;;4999194;28;20489;-80
2023/01/12 09:57:47;;;;;;;1.80;0.80;;;9.90;99.90;;;;;;5006210;28;20454;-79
2023/01/12 10:00:19;;;;;;;1.90;1.00;;;10.00;99.90;;;;;;5017903;28;20437;-79
2023/01/12 10:05:28;;;;;;;5.27;1.30;;;10.00;99.90;;;;;;5066732;23;20495;-82
2023/01/12 10:07:56;;;;;;;2.63;1.20;;;10.00;99.90;;;;;;5017468;28;20466;-83
2023/01/12 10:10:23;;;;;;;3.13;1.00;;;10.00;99.90;;;;;;5032848;28;20457;-82
2023/01/12 10:12:54;;;;;;;6.10;1.33;;;10.10;99.90;;;;;;5038832;28;20453;-80
2023/01/12 10:15:35;;;;;;;3.40;1.13;;;10.10;99.90;;;;;;5035104;28;20974;-83
2023/01/12 10:18:07;;;;;;;2.80;1.40;;;10.10;99.90;;;;;;5030766;28;20536;-82
2023/01/12 10:20:41;;;;;;;2.07;1.00;;;10.20;99.90;;;;;;5034973;28;20466;-83
2023/01/12 10:23:17;;;;;;;2.87;1.00;;;10.20;99.90;;;;;;5034823;28;20490;-83
2023/01/12 10:25:47;;;;;;;1.90;0.80;;;10.20;99.90;;;;;;5018913;28;20451;-83
2023/01/12 10:28:17;;;;;;;2.53;1.00;;;10.20;99.90;;;;;;5023903;28;20489;-84
2023/01/12 10:30:45;;;;;;;4.53;1.50;;;10.20;99.90;;;;;;5029467;28;20458;-83
2023/01/12 10:33:15;;;;;;;2.73;0.90;;;10.20;99.90;;;;;;5024595;28;20447;-84
2023/01/12 10:35:51;;;;;;;2.93;1.20;;;10.30;99.90;;;;;;5031467;28;20452;-81
2023/01/12 10:38:25;;;;;;;5.60;1.23;;;10.30;99.90;;;;;;5038216;28;20453;-80
2023/01/12 10:41:12;;;;;;;3.13;1.30;;;10.40;99.90;;;;;;5037493;28;20975;-80
2023/01/12 10:43:40;;;;;;;4.83;1.53;;;10.40;99.90;;;;;;5035306;28;20475;-82
2023/01/12 10:46:13;;;;;;;6.03;1.67;;;10.50;99.90;;;;;;5024948;28;20961;-81
2023/01/12 10:48:42;;;;;;;2.63;0.80;;;10.50;99.90;;;;;;5029300;28;20488;-82
2023/01/12 10:51:25;;;;;;;4.17;1.37;;;10.50;99.90;;;;;;5035713;28;20512;-81
2023/01/12 10:53:56;;;;;;;1.80;0.77;;;10.50;99.90;;;;;;5030234;28;20478;-81
2023/01/12 10:56:35;;;;;;;4.10;1.40;;;10.50;99.90;;;;;;5036845;28;20540;-81
2023/01/12 10:59:04;;;;;;;4.07;0.90;;;10.50;99.90;;;;;;5039020;28;20455;-82
2023/01/12 11:01:46;;;;;;;2.80;1.37;;;10.60;99.90;;;;;;5036971;28;21054;-80
2023/01/12 11:04:15;;;;;;;5.53;1.23;;;10.60;99.90;;;;;;5042608;28;20980;-81
2023/01/12 11:06:43;;;;;;;3.20;1.23;;;10.70;99.90;;;;;;5042636;28;20942;-80
2023/01/12 11:09:26;;;;;;;3.60;1.00;;;10.80;99.90;;;;;;5044176;28;20455;-82
2023/01/12 11:11:55;;;;;;;4.17;1.10;;;10.70;99.90;;;;;;5038282;28;20506;-81
2023/01/12 11:14:29;;;;;;;4.20;1.50;;;10.70;99.90;;;;;;5040554;28;20495;-80
2023/01/12 11:17:06;;;;;;;2.50;1.17;;;10.70;99.90;;;;;;5050728;28;20449;-80
2023/01/12 11:19:35;;;;;;;4.80;1.17;;;10.60;99.90;;;;;;5039400;28;20530;-80
2023/01/12 11:22:10;;;;;;;3.50;1.30;;;10.60;99.90;;;;;;5038352;28;20451;-80
2023/01/12 11:24:43;;;;;;;2.00;1.00;;;10.50;99.90;;;;;;5032478;28;20479;-81
2023/01/12 11:27:18;;;;;;;3.60;1.00;;;10.60;99.90;;;;;;5019670;28;20481;-80
2023/01/12 11:29:54;;;;;;;4.30;1.13;;;10.60;99.90;;;;;;5033020;28;20924;-83
2023/01/12 11:32:31;;;;;;;3.43;1.40;;;10.60;99.90;;;;;;5033597;28;20452;-82
2023/01/12 11:35:03;;;;;;;2.00;1.10;;;10.60;99.90;;;;;;5035190;28;20932;-80
2023/01/12 11:37:37;;;;;;;2.33;0.90;;;10.60;99.90;;;;;;5031943;28;20462;-82
2023/01/12 11:40:15;;;;;;;5.00;1.27;;;10.50;99.90;;;;;;5034740;28;20453;-82
2023/01/12 11:45:50;;;;;;;3.90;1.57;;;10.50;99.90;;;;;;4971018;28;20434;-83
2023/01/12 11:48:23;;;;;;;5.60;2.10;;;10.50;99.90;;;;;;4977540;28;20567;-83
2023/01/12 11:50:53;;;;;;;2.47;1.10;;;10.50;99.90;;;;;;4995879;28;20828;-81
2023/01/12 11:53:22;;;;;;;3.20;1.00;;;10.50;99.90;;;;;;5034348;28;20553;-82
2023/01/12 11:56:06;;;;;;;2.63;1.20;;;10.50;99.90;;;;;;5029244;28;20461;-82
2023/01/12 11:58:40;;;;;;;3.30;1.10;;;10.50;99.90;;;;;;5025734;28;20949;-80
2023/01/12 12:01:12;;;;;;;4.03;0.90;;;10.50;99.90;;;;;;5021978;28;20467;-82
2023/01/12 12:04:08;;;;;;;1.83;0.90;;;10.50;99.90;;;;;;5022127;28;20479;-82
2023/01/12 12:06:55;;;;;;;4.23;0.90;;;10.50;99.90;;;;;;5027556;28;20536;-82
2023/01/12 12:09:35;;;;;;;4.40;0.90;;;10.50;99.90;;;;;;5036875;28;20432;-79
2023/01/12 12:12:07;;;;;;;6.60;1.23;;;10.50;99.90;;;;;;5034046;28;20588;-82
2023/01/12 12:14:53;;;;;;;2.60;1.00;;;10.50;99.90;;;;;;5033101;28;20482;-80
2023/01/12 12:17:26;;;;;;;3.57;0.93;;;10.50;99.90;;;;;;5024341;28;20858;-82
2023/01/12 12:20:02;;;;;;;3.77;1.13;;;10.50;99.90;;;;;;5033599;28;20519;-82
2023/01/12 12:22:47;;;;;;;3.10;0.80;;;10.50;99.90;;;;;;5019536;28;20448;-81
2023/01/12 12:25:23;;;;;;;2.37;0.80;;;10.50;99.90;;;;;;5023827;28;21076;-82
2023/01/12 12:28:21;;;;;;;5.83;1.23;;;10.50;99.90;;;;;;5024250;28;21026;-82
2023/01/12 12:31:00;;;;;;;6.00;1.10;;;10.50;99.90;;;;;;5038664;28;20455;-82
2023/01/12 12:33:39;;;;;;;2.63;1.10;;;10.40;99.90;;;;;;5023242;28;20577;-83
2023/01/12 12:36:17;;;;;;;3.10;1.17;;;10.40;99.90;;;;;;5039131;28;20471;-82
2023/01/12 12:39:20;;;;;;;2.37;1.20;;;10.40;99.90;;;;;;5032492;28;20478;-82
2023/01/12 12:47:49;;;;;;;3.30;1.20;;;10.40;99.90;;;;;;5040017;28;20560;-81
2023/01/12 12:50:20;;;;;;;2.97;1.10;;;10.50;99.90;;;;;;5031098;28;21020;-82
2023/01/12 12:52:51;;;;;;;2.90;1.20;;;10.50;99.90;;;;;;5042113;28;20543;-83
2023/01/12 12:55:18;;;;;;;7.60;1.30;;;10.50;99.90;;;;;;5037441;28;20475;-83
2023/01/12 12:58:02;;;;;;;6.17;1.63;;;10.50;99.90;;;;;;5038500;28;20450;-83
2023/01/12 13:00:39;;;;;;;2.73;0.87;;;10.50;99.90;;;;;;5032906;28;20450;-82
2023/01/12 13:03:06;;;;;;;7.40;1.47;;;10.40;99.90;;;;;;5029921;28;20439;-81
2023/01/12 13:05:42;;;;;;;2.90;0.97;;;10.50;99.90;;;;;;5031112;28;20531;-81
2023/01/12 13:08:21;;;;;;;3.40;1.67;;;10.40;99.90;;;;;;5031566;28;20486;-82
2023/01/12 13:10:52;;;;;;;1.93;0.93;;;10.40;99.90;;;;;;5026363;28;20446;-81
2023/01/12 13:13:30;;;;;;;5.47;1.80;;;10.40;99.90;;;;;;5023136;28;20478;-82
2023/01/12 13:16:45;;;;;;;3.93;1.20;;;10.40;99.90;;;;;;5041155;28;20500;-81
2023/01/12 13:19:31;;;;;;;3.30;1.10;;;10.50;99.90;;;;;;5039953;28;20473;-81
2023/01/12 13:21:59;;;;;;;2.37;0.80;;;10.50;99.90;;;;;;5039500;28;20480;-81
2023/01/12 13:24:39;;;;;;;2.17;0.80;;;10.40;99.90;;;;;;5023377;28;20885;-79
2023/01/12 13:27:40;;;;;;;3.40;1.30;;;10.50;99.90;;;;;;5039486;28;20457;-82
2023/01/12 13:30:37;;;;;;;2.80;0.87;;;10.50;99.90;;;;;;5035584;28;20513;-82
2023/01/12 13:33:25;;;;;;;1.70;0.70;;;10.50;99.90;;;;;;5036445;28;20447;-79
2023/01/12 13:36:09;;;;;;;2.50;1.00;;;10.50;99.90;;;;;;5027151;28;20453;-80
2023/01/12 13:39:05;;;;;;;3.00;0.90;;;10.50;99.90;;;;;;5034747;28;20524;-82
2023/01/12 13:44:28;;;;;;;2.33;0.90;;;10.50;99.90;;;;;;5035131;28;20601;-82
2023/01/12 13:47:07;;;;;;;2.00;0.80;;;10.50;99.90;;;;;;5036709;28;20462;-81
2023/01/12 13:49:42;;;;;;;3.00;1.40;;;10.50;99.90;;;;;;5036340;28;20442;-82
2023/01/12 13:52:21;;;;;;;4.13;1.03;;;10.50;99.90;;;;;;5037021;28;20440;-82
2023/01/12 13:54:50;;;;;;;1.60;0.70;;;10.50;99.90;;;;;;5035022;28;20472;-83
2023/01/12 13:57:19;;;;;;;4.03;0.80;;;10.50;99.90;;;;;;5036992;28;20454;-83
2023/01/12 13:59:56;;;;;;;1.70;0.90;;;10.50;99.90;;;;;;5040283;28;20520;-81
2023/01/12 14:02:24;;;;;;;3.10;1.03;;;10.50;99.90;;;;;;5038722;28;20450;-82